Time;durP1;ratioP1;P1;durP2;ratioP2;P2;SDS_P1;SDS_P2;PMS_P1;PMS_P2;Temp;Humidity;BMP_temperature;BMP_pressure;BME280_temperature;BME280_humidity;BME280_pressure;Samples;Min_cycle;Max_cycle;Signal;HPM_P1;HPM_P2
2023/05/08 00:01:51;;;;;;;8.67;7.80;;;;;;;10.45;77.39;101364.38;4985620;28;20199;-78
2023/05/08 00:04:19;;;;;;;9.60;8.90;;;;;;;10.45;77.46;101364.38;4991439;28;20243;-78
2023/05/08 00:06:46;;;;;;;9.77;9.07;;;;;;;10.43;77.40;101363.53;4994753;28;20244;-79
2023/05/08 00:09:12;;;;;;;9.03;8.43;;;;;;;10.41;77.42;101365.28;4995197;28;20254;-78
2023/05/08 00:11:38;;;;;;;8.20;7.70;;;;;;;10.41;77.78;101366.13;4994927;28;20220;-78
2023/05/08 00:14:05;;;;;;;8.53;8.03;;;;;;;10.39;77.59;101367.88;4994694;28;20234;-78
2023/05/08 00:16:32;;;;;;;8.33;7.73;;;;;;;10.31;78.20;101360.06;4995177;28;20211;-78
2023/05/08 00:18:59;;;;;;;8.33;7.83;;;;;;;10.34;77.71;101360.03;4994784;28;20258;-78
2023/05/08 00:21:27;;;;;;;8.23;7.63;;;;;;;10.31;77.74;101357.47;4995108;28;20206;-78
2023/05/08 00:23:53;;;;;;;8.80;8.10;;;;;;;10.29;77.60;101372.22;4995520;28;20233;-78
2023/05/08 00:26:20;;;;;;;7.90;7.40;;;;;;;10.27;77.47;101379.19;4995062;28;20231;-78
2023/05/08 00:28:47;;;;;;;8.77;8.17;;;;;;;10.26;77.36;101371.34;4994938;28;20266;-78
2023/05/08 00:31:13;;;;;;;8.37;7.87;;;;;;;10.26;77.17;101384.41;4994622;28;20747;-78
2023/05/08 00:33:40;;;;;;;8.70;8.07;;;;;;;10.21;77.08;101391.38;4994577;28;20325;-78
2023/05/08 00:36:07;;;;;;;8.20;7.70;;;;;;;10.21;76.78;101394.88;4994427;28;20624;-77
2023/05/08 00:38:36;;;;;;;8.33;7.83;;;;;;;10.19;76.59;101404.44;4994883;28;20230;-79
2023/05/08 00:41:03;;;;;;;8.47;7.90;;;;;;;10.21;76.30;101405.31;4994489;28;20270;-78
2023/05/08 00:43:29;;;;;;;8.10;7.60;;;;;;;10.16;76.22;101417.47;4994093;28;20266;-79
2023/05/08 00:45:57;;;;;;;7.90;7.40;;;;;;;10.18;76.28;101413.13;4993927;28;20222;-78
2023/05/08 00:48:24;;;;;;;8.13;7.53;;;;;;;10.18;76.54;101425.31;4994468;28;20671;-79
2023/05/08 00:50:52;;;;;;;8.20;7.60;;;;;;;10.16;76.36;101424.44;4994353;28;20265;-78
2023/05/08 00:53:21;;;;;;;7.73;7.23;;;;;;;10.13;76.49;101417.50;4994215;28;20224;-78
2023/05/08 00:55:50;;;;;;;7.70;7.10;;;;;;;10.09;76.48;101420.97;4994276;28;20230;-78
2023/05/08 00:58:17;;;;;;;7.20;6.70;;;;;;;10.08;76.50;101414.00;4993909;28;20214;-78
2023/05/08 01:00:46;;;;;;;7.80;7.30;;;;;;;10.04;76.54;101417.50;4994258;28;20214;-78
2023/05/08 01:03:14;;;;;;;8.27;7.70;;;;;;;10.05;76.42;101414.00;4993994;28;20244;-79
2023/05/08 01:05:41;;;;;;;8.50;7.90;;;;;;;10.00;76.55;101415.75;4994406;28;20211;-78
2023/05/08 01:08:07;;;;;;;8.17;7.67;;;;;;;9.99;76.59;101417.50;4994193;28;20231;-78
2023/05/08 01:10:57;;;;;;;8.20;7.43;;;;;;;9.99;76.74;101414.00;4994181;28;20245;-78
2023/05/08 01:13:34;;;;;;;8.63;8.03;;;;;;;9.98;76.55;101412.28;4994541;28;20233;-78
2023/05/08 01:16:11;;;;;;;8.30;7.80;;;;;;;9.94;76.76;101409.66;4998349;28;20214;-78
2023/05/08 01:18:42;;;;;;;7.80;7.30;;;;;;;9.91;77.14;101404.47;4998295;28;20218;-78
2023/05/08 01:21:17;;;;;;;7.80;7.10;;;;;;;9.87;77.21;101392.31;4997824;28;20207;-77
2023/05/08 01:24:13;;;;;;;8.30;7.60;;;;;;;9.82;77.31;101385.34;4998634;28;20227;-79
2023/05/08 01:27:09;;;;;;;8.10;7.60;;;;;;;9.80;77.42;101390.56;4998925;28;20230;-78
2023/05/08 01:29:59;;;;;;;8.50;7.90;;;;;;;9.78;77.43;101381.88;4998300;28;20215;-79
2023/05/08 01:32:29;;;;;;;8.07;7.57;;;;;;;9.71;77.77;101383.63;4997957;28;20207;-79
2023/05/08 01:35:03;;;;;;;8.17;7.40;;;;;;;9.68;77.93;101359.28;4998897;28;20293;-79
2023/05/08 01:37:35;;;;;;;7.17;6.67;;;;;;;9.69;77.63;101361.00;4998107;28;20270;-79
2023/05/08 01:40:10;;;;;;;7.97;7.30;;;;;;;9.66;77.64;101355.81;4997518;28;20215;-79
2023/05/08 01:42:46;;;;;;;7.80;7.27;;;;;;;9.67;77.62;101358.41;4998756;28;20237;-79
2023/05/08 01:45:18;;;;;;;7.47;6.97;;;;;;;9.66;77.83;101366.25;4999309;28;20210;-79
2023/05/08 01:47:51;;;;;;;9.57;8.77;;;;;;;9.63;77.64;101369.72;4999087;28;20233;-79
2023/05/08 01:50:21;;;;;;;7.80;7.30;;;;;;;9.62;77.82;101373.19;4998789;28;20642;-79
2023/05/08 01:52:52;;;;;;;8.37;7.87;;;;;;;9.60;77.91;101364.50;4998712;28;20215;-79
2023/05/08 01:55:24;;;;;;;7.60;7.10;;;;;;;9.57;78.08;101364.47;4998804;28;20203;-78
2023/05/08 01:57:53;;;;;;;7.33;6.83;;;;;;;9.54;77.93;101365.34;4998855;28;20200;-78
2023/05/08 02:00:22;;;;;;;7.60;7.10;;;;;;;9.49;77.90;101364.50;4999016;28;20204;-78
2023/05/08 02:02:51;;;;;;;7.80;7.20;;;;;;;9.48;78.30;101357.53;4998454;28;20206;-79
2023/05/08 02:05:20;;;;;;;7.97;7.47;;;;;;;9.49;78.23;101358.41;4998105;28;20690;-78
2023/05/08 02:07:48;;;;;;;7.90;7.20;;;;;;;9.42;78.41;101347.13;4997904;28;20232;-78
2023/05/08 02:10:16;;;;;;;7.50;7.00;;;;;;;9.45;78.43;101341.88;4998393;28;20204;-78
2023/05/08 02:12:44;;;;;;;8.37;7.70;;;;;;;9.38;79.01;101340.16;4998096;28;20264;-78
2023/05/08 02:15:13;;;;;;;7.90;7.40;;;;;;;9.42;78.62;101334.09;4998577;28;20203;-78
2023/05/08 02:17:41;;;;;;;7.93;7.43;;;;;;;9.39;78.76;101333.22;4998568;28;20250;-78
2023/05/08 02:20:13;;;;;;;7.77;7.27;;;;;;;9.36;78.79;101331.47;4998664;28;20292;-79
2023/05/08 02:22:43;;;;;;;8.37;7.87;;;;;;;9.36;78.70;101333.22;4998374;28;20210;-79
2023/05/08 02:25:13;;;;;;;8.10;7.50;;;;;;;9.35;78.94;101329.72;4998287;28;20638;-79
2023/05/08 02:27:44;;;;;;;8.57;8.07;;;;;;;9.37;78.67;101335.81;4998961;28;20227;-79
2023/05/08 02:30:12;;;;;;;8.50;7.90;;;;;;;9.37;78.79;101338.41;4998175;28;20261;-78
2023/05/08 02:32:40;;;;;;;7.47;6.97;;;;;;;9.33;78.88;101339.28;4998437;28;20636;-78
2023/05/08 02:35:11;;;;;;;8.40;7.80;;;;;;;9.31;78.53;101341.03;4998431;28;20228;-79
2023/05/08 02:37:38;;;;;;;8.43;7.93;;;;;;;9.26;79.22;101338.41;4998239;28;20201;-79
2023/05/08 02:40:08;;;;;;;8.00;7.47;;;;;;;9.24;79.01;101337.56;4997984;28;20208;-79
2023/05/08 02:42:35;;;;;;;8.73;8.13;;;;;;;9.27;79.05;101331.47;4998488;28;20256;-79
2023/05/08 02:45:02;;;;;;;8.47;7.87;;;;;;;9.24;79.12;101326.28;5003441;28;20251;-79
2023/05/08 02:47:39;;;;;;;8.07;7.57;;;;;;;9.23;79.01;101327.97;5001527;28;20227;-79
2023/05/08 02:50:15;;;;;;;8.50;7.93;;;;;;;9.21;79.85;101329.72;4997294;28;20215;-79
2023/05/08 02:52:45;;;;;;;8.10;7.50;;;;;;;9.20;79.20;101334.94;4997372;28;20225;-79
2023/05/08 02:55:21;;;;;;;8.17;7.67;;;;;;;9.16;79.77;101326.25;4997713;28;20261;-79
2023/05/08 02:57:53;;;;;;;8.93;8.30;;;;;;;9.12;79.33;101327.13;4997713;28;20214;-79
2023/05/08 03:00:24;;;;;;;8.23;7.53;;;;;;;9.10;79.78;101318.44;4997614;28;20210;-79
2023/05/08 03:02:55;;;;;;;7.50;7.00;;;;;;;9.10;79.47;101319.31;4997482;28;20269;-79
2023/05/08 03:05:29;;;;;;;8.53;7.93;;;;;;;9.09;79.92;101316.69;4997355;28;20269;-79
2023/05/08 03:07:59;;;;;;;8.23;7.70;;;;;;;9.04;79.55;101307.97;4996780;28;20236;-79
2023/05/08 03:10:32;;;;;;;7.57;7.07;;;;;;;9.00;80.00;101303.66;4997659;28;20257;-79
2023/05/08 03:13:03;;;;;;;8.87;8.23;;;;;;;8.98;80.33;101295.84;4997132;28;20708;-79
2023/05/08 03:15:39;;;;;;;8.63;8.07;;;;;;;8.94;79.83;101302.78;4996417;28;20241;-79
2023/05/08 03:18:08;;;;;;;8.43;7.83;;;;;;;8.92;80.29;101296.72;4996286;28;20203;-79
2023/05/08 03:20:39;;;;;;;8.27;7.77;;;;;;;8.92;80.06;101298.44;4996588;28;20764;-79
2023/05/08 03:23:08;;;;;;;8.37;7.80;;;;;;;8.91;80.59;101301.91;4996217;28;20287;-79
2023/05/08 03:25:38;;;;;;;9.20;8.50;;;;;;;8.89;80.28;101290.63;4996450;28;20219;-79
2023/05/08 03:28:06;;;;;;;9.30;8.70;;;;;;;8.86;80.22;101296.69;4996302;28;20231;-78
2023/05/08 03:30:36;;;;;;;8.63;8.03;;;;;;;8.82;80.57;101288.84;4996190;28;20207;-78
2023/05/08 03:33:03;;;;;;;9.80;9.07;;;;;;;8.81;81.02;101288.00;4995883;28;20217;-78
2023/05/08 03:35:31;;;;;;;9.53;8.83;;;;;;;8.77;80.85;101283.66;4996480;28;20240;-78
2023/05/08 03:37:59;;;;;;;8.53;7.93;;;;;;;8.75;81.36;101281.03;4995822;28;20209;-79
2023/05/08 03:40:27;;;;;;;9.80;9.10;;;;;;;8.67;81.37;101272.34;4996351;28;20211;-78
2023/05/08 03:42:54;;;;;;;8.93;8.33;;;;;;;8.71;81.30;101252.41;4995669;28;20618;-78
2023/05/08 03:45:22;;;;;;;8.83;8.13;;;;;;;8.71;81.15;101253.28;4995460;28;20212;-78
2023/05/08 03:47:49;;;;;;;9.60;8.87;;;;;;;8.70;81.37;101248.94;4996221;28;20234;-78
2023/05/08 03:50:15;;;;;;;9.37;8.67;;;;;;;8.68;81.69;101253.28;4996402;28;20698;-78
2023/05/08 03:52:43;;;;;;;9.73;9.03;;;;;;;8.67;81.63;101245.47;4995848;28;20215;-78
2023/05/08 03:55:10;;;;;;;9.00;8.33;;;;;;;8.68;81.61;101255.00;4995826;28;20264;-79
2023/05/08 03:57:45;;;;;;;8.47;7.87;;;;;;;8.68;81.76;101253.28;4995681;28;20237;-79
2023/05/08 04:00:20;;;;;;;11.40;9.27;;;;;;;8.66;81.25;101248.91;4995812;28;20271;-79
2023/05/08 04:02:52;;;;;;;8.63;8.13;;;;;;;8.67;81.80;101253.28;4996217;28;20216;-79
2023/05/08 04:05:24;;;;;;;9.00;8.40;;;;;;;8.68;82.35;101253.28;4996282;28;20215;-78
2023/05/08 04:07:56;;;;;;;9.47;8.77;;;;;;;8.65;81.96;101252.41;4995949;28;20226;-79
2023/05/08 04:10:30;;;;;;;9.60;8.90;;;;;;;8.66;81.59;101257.63;4995976;28;20218;-79
2023/05/08 04:13:05;;;;;;;9.50;8.80;;;;;;;8.64;81.44;101261.94;4996440;28;20207;-79
2023/05/08 04:15:34;;;;;;;9.10;8.47;;;;;;;8.67;81.97;101261.06;4996084;28;20209;-79
2023/05/08 04:18:06;;;;;;;8.77;8.13;;;;;;;8.70;81.50;101255.88;4996428;28;20221;-79
2023/05/08 04:20:33;;;;;;;9.93;9.23;;;;;;;8.73;82.12;101250.69;4997006;28;20211;-79
2023/05/08 04:23:02;;;;;;;9.53;8.73;;;;;;;8.75;81.85;101249.81;4995852;28;20217;-79
2023/05/08 04:25:33;;;;;;;10.47;9.60;;;;;;;8.77;81.78;101252.41;4996305;28;20264;-79
2023/05/08 04:28:01;;;;;;;9.50;8.70;;;;;;;8.79;81.66;101257.63;4996197;28;20299;-79
2023/05/08 04:30:28;;;;;;;9.13;8.53;;;;;;;8.80;82.10;101254.16;4996329;28;20234;-79
2023/05/08 04:32:55;;;;;;;9.73;9.03;;;;;;;8.82;82.05;101253.31;4995700;28;20211;-78
2023/05/08 04:35:22;;;;;;;9.20;8.50;;;;;;;8.84;82.50;101248.06;4996503;28;20214;-79
2023/05/08 04:37:48;;;;;;;9.20;8.47;;;;;;;8.87;81.90;101253.31;4996337;28;20206;-79
2023/05/08 04:40:15;;;;;;;9.30;8.70;;;;;;;8.85;81.97;101260.25;4996677;28;20234;-78
2023/05/08 04:42:45;;;;;;;8.93;8.33;;;;;;;8.83;82.15;101264.56;4996393;28;20264;-78
2023/05/08 04:45:12;;;;;;;10.37;9.30;;;;;;;8.81;81.73;101274.13;4996476;28;20666;-79
2023/05/08 04:47:39;;;;;;;9.53;8.83;;;;;;;8.80;81.61;101270.66;4995312;28;20230;-79
2023/05/08 04:50:06;;;;;;;10.33;9.60;;;;;;;8.84;81.91;101279.31;4995859;28;20673;-79
2023/05/08 04:52:32;;;;;;;9.33;8.63;;;;;;;8.84;81.63;101282.81;4995368;28;20207;-79
2023/05/08 04:54:58;;;;;;;9.37;8.77;;;;;;;8.85;81.79;101284.53;4995582;28;20282;-79
2023/05/08 04:57:25;;;;;;;10.10;9.40;;;;;;;8.83;81.77;101280.19;4995889;28;20225;-79
2023/05/08 04:59:52;;;;;;;8.90;8.30;;;;;;;8.84;81.63;101282.81;4996823;28;20215;-79
2023/05/08 05:02:19;;;;;;;9.30;8.60;;;;;;;8.86;81.83;101285.41;4996251;28;20210;-79
2023/05/08 05:04:45;;;;;;;10.03;9.23;;;;;;;8.89;82.20;101285.41;5043414;23;20234;-82
2023/05/08 05:07:12;;;;;;;9.40;8.70;;;;;;;8.87;82.52;101287.16;5033361;28;20279;-83
2023/05/08 05:09:38;;;;;;;9.77;9.10;;;;;;;8.89;82.12;101288.88;5034680;28;20291;-84
2023/05/08 05:12:05;;;;;;;9.93;9.20;;;;;;;8.93;82.72;101285.41;5035712;28;20218;-82
2023/05/08 05:14:32;;;;;;;8.60;8.07;;;;;;;9.00;82.48;101275.00;5034868;28;20261;-82
2023/05/08 05:17:00;;;;;;;9.27;8.67;;;;;;;9.02;81.98;101281.97;5035268;28;20232;-82
2023/05/08 05:19:26;;;;;;;9.10;8.50;;;;;;;9.05;82.81;101284.56;5035556;28;20202;-81
2023/05/08 05:21:53;;;;;;;9.00;8.30;;;;;;;9.07;82.66;101284.56;5035239;28;20248;-83
2023/05/08 05:24:19;;;;;;;9.50;8.80;;;;;;;9.09;82.55;101278.47;5037879;28;20226;-82
2023/05/08 05:26:45;;;;;;;9.57;8.90;;;;;;;9.11;82.57;101275.88;5036458;28;20206;-81
2023/05/08 05:29:12;;;;;;;9.07;8.47;;;;;;;9.15;82.58;101275.00;5035732;28;20285;-81
2023/05/08 05:31:38;;;;;;;9.57;8.73;;;;;;;9.18;83.00;101269.81;5035302;28;20208;-81
2023/05/08 05:34:06;;;;;;;9.13;8.53;;;;;;;9.22;82.95;101266.34;5036196;28;20230;-82
2023/05/08 05:36:32;;;;;;;10.40;9.60;;;;;;;9.22;82.71;101278.50;5035295;28;20413;-81
2023/05/08 05:38:58;;;;;;;9.73;9.10;;;;;;;9.22;83.23;101281.13;5035078;28;20204;-82
2023/05/08 05:41:25;;;;;;;10.83;9.83;;;;;;;9.24;82.81;101269.81;5034425;28;20201;-83
2023/05/08 05:43:51;;;;;;;9.87;9.17;;;;;;;9.29;82.64;101280.22;5034923;28;20230;-81
2023/05/08 05:46:17;;;;;;;10.20;9.40;;;;;;;9.32;82.64;101288.06;5033781;28;20638;-82
2023/05/08 05:48:44;;;;;;;9.87;9.20;;;;;;;9.36;82.58;101287.19;5033023;28;20230;-81
2023/05/08 05:51:11;;;;;;;9.37;8.57;;;;;;;9.38;82.50;101289.81;5032942;28;20205;-80
2023/05/08 05:53:38;;;;;;;9.73;9.03;;;;;;;9.35;82.41;101301.06;5034266;28;20264;-80
2023/05/08 05:56:05;;;;;;;10.27;9.57;;;;;;;9.38;82.37;101295.00;5034423;28;20533;-79
2023/05/08 05:58:32;;;;;;;10.10;9.40;;;;;;;9.37;82.72;101296.72;5033955;28;20206;-83
2023/05/08 06:00:59;;;;;;;10.50;9.70;;;;;;;9.39;82.60;101288.91;5037273;28;20218;-81
2023/05/08 06:03:26;;;;;;;10.20;9.40;;;;;;;9.39;82.55;101284.56;5049341;28;20230;-83
2023/05/08 06:05:52;;;;;;;11.40;10.57;;;;;;;9.42;82.98;101287.19;5056100;28;20217;-83
2023/05/08 06:08:20;;;;;;;10.73;9.93;;;;;;;9.47;83.07;101284.56;5056671;28;20256;-84
2023/05/08 06:10:46;;;;;;;10.20;9.50;;;;;;;9.50;82.50;101276.75;5056430;28;20224;-84
2023/05/08 06:13:13;;;;;;;10.97;10.17;;;;;;;9.49;82.91;101288.94;5056015;28;20209;-85
2023/05/08 06:15:39;;;;;;;11.27;10.37;;;;;;;9.52;83.24;101280.22;5056461;28;20206;-81
2023/05/08 06:18:05;;;;;;;9.93;9.23;;;;;;;9.58;82.37;101290.63;5057450;28;20239;-83
2023/05/08 06:20:32;;;;;;;10.57;9.80;;;;;;;9.56;82.34;101296.75;5057783;28;20241;-83
2023/05/08 06:22:58;;;;;;;10.27;9.53;;;;;;;9.56;81.92;101305.41;5056491;28;20228;-84
2023/05/08 06:25:27;;;;;;;10.83;10.00;;;;;;;9.62;81.58;101321.03;5057661;28;20256;-81
2023/05/08 06:27:53;;;;;;;9.77;9.17;;;;;;;9.68;81.94;101325.41;5056584;28;20231;-84
2023/05/08 06:30:19;;;;;;;10.03;9.33;;;;;;;9.73;82.39;101315.81;5050271;28;20259;-84
2023/05/08 06:32:46;;;;;;;9.87;9.13;;;;;;;9.79;81.87;101318.44;5042952;28;20210;-85
2023/05/08 06:35:17;;;;;;;9.70;9.10;;;;;;;9.81;81.07;101340.16;5046751;28;20226;-84
2023/05/08 06:37:43;;;;;;;10.17;9.47;;;;;;;9.85;80.91;101347.09;5049255;28;20277;-85
2023/05/08 06:40:11;;;;;;;10.47;9.77;;;;;;;9.90;81.14;101358.38;5051467;28;20209;-86
2023/05/08 06:42:39;;;;;;;10.77;9.93;;;;;;;9.96;80.99;101357.50;5044349;28;20286;-83
2023/05/08 06:45:07;;;;;;;10.93;10.13;;;;;;;10.04;81.38;101366.19;5044691;28;20936;-84
2023/05/08 06:47:33;;;;;;;10.97;10.17;;;;;;;10.10;80.75;101366.16;5044539;28;20752;-84
2023/05/08 06:50:00;;;;;;;10.07;9.27;;;;;;;10.15;80.45;101374.00;5045016;28;20229;-83
2023/05/08 06:52:31;;;;;;;9.70;9.07;;;;;;;10.20;80.04;101390.50;5043708;28;20247;-86
2023/05/08 06:54:58;;;;;;;10.43;9.63;;;;;;;10.25;79.95;101399.19;5041017;28;20633;-85
2023/05/08 06:57:25;;;;;;;10.90;10.20;;;;;;;10.30;79.52;101407.03;5040679;28;20266;-82
2023/05/08 06:59:53;;;;;;;10.80;10.03;;;;;;;10.33;79.23;101407.91;5039878;28;20284;-84
2023/05/08 07:02:23;;;;;;;9.93;9.23;;;;;;;10.36;78.30;101430.50;5039773;28;20202;-85
2023/05/08 07:04:49;;;;;;;11.57;10.70;;;;;;;10.38;78.48;101434.00;5038694;28;20606;-82
2023/05/08 07:07:33;;;;;;;10.60;9.70;;;;;;;10.43;78.43;101450.53;5039044;28;20636;-83
2023/05/08 07:10:00;;;;;;;10.83;10.13;;;;;;;10.45;78.78;101440.09;5038763;28;20230;-82
2023/05/08 07:12:26;;;;;;;10.47;9.77;;;;;;;10.51;78.25;101447.91;5037642;28;20209;-82
2023/05/08 07:14:54;;;;;;;9.90;9.20;;;;;;;10.54;78.09;101455.69;5039106;28;20230;-81
2023/05/08 07:17:20;;;;;;;10.73;9.97;;;;;;;10.60;77.96;101462.66;5038581;28;20260;-83
2023/05/08 07:19:50;;;;;;;10.60;9.90;;;;;;;10.64;77.83;101469.59;5037938;28;20216;-83
2023/05/08 07:22:16;;;;;;;10.90;10.20;;;;;;;10.65;77.66;101468.75;5039210;28;20259;-86
2023/05/08 07:24:42;;;;;;;11.00;10.23;;;;;;;10.70;78.25;101472.19;5038731;28;20230;-82
2023/05/08 07:27:09;;;;;;;10.97;10.27;;;;;;;10.76;78.18;101468.72;5038066;28;20210;-80
2023/05/08 07:29:35;;;;;;;10.60;9.80;;;;;;;10.83;77.36;101473.03;5037220;28;20229;-82
2023/05/08 07:32:06;;;;;;;10.77;10.07;;;;;;;10.87;77.14;101485.22;5037881;28;20685;-81
2023/05/08 07:34:33;;;;;;;10.73;9.90;;;;;;;10.88;77.33;101486.94;5037599;28;20225;-81
2023/05/08 07:37:00;;;;;;;11.23;10.43;;;;;;;10.91;77.71;101486.94;5037646;28;20218;-81
2023/05/08 07:39:26;;;;;;;10.80;10.00;;;;;;;10.96;77.92;101498.25;5037383;28;20676;-82
2023/05/08 07:41:52;;;;;;;11.30;10.30;;;;;;;10.98;78.36;101464.25;5037203;28;20679;-81
2023/05/08 07:44:19;;;;;;;11.73;10.83;;;;;;;11.05;78.29;101451.19;5037757;28;20778;-81
2023/05/08 07:46:45;;;;;;;11.47;10.50;;;;;;;11.13;77.61;101456.38;5037301;28;20213;-80
2023/05/08 07:49:13;;;;;;;10.73;10.00;;;;;;;11.21;77.60;101477.25;5036554;28;20684;-84
2023/05/08 07:51:40;;;;;;;10.90;10.17;;;;;;;11.24;78.43;101454.56;5037386;28;20255;-80
2023/05/08 07:54:06;;;;;;;11.40;10.40;;;;;;;11.29;77.30;101463.25;5037769;28;20230;-83
2023/05/08 07:56:33;;;;;;;10.93;10.13;;;;;;;11.37;76.72;101476.28;5037702;28;20213;-81
2023/05/08 07:58:59;;;;;;;11.50;10.70;;;;;;;11.40;76.36;101498.94;5037461;28;20220;-82
2023/05/08 08:01:26;;;;;;;10.70;10.00;;;;;;;11.43;76.13;101499.78;5037425;28;20260;-81
2023/05/08 08:03:53;;;;;;;11.90;11.00;;;;;;;11.49;76.02;101507.56;5037266;28;20296;-81
2023/05/08 08:06:20;;;;;;;11.57;10.77;;;;;;;11.51;77.98;101505.81;5037792;28;20209;-80
2023/05/08 08:08:47;;;;;;;10.10;9.50;;;;;;;11.62;78.58;101470.91;5037436;28;20225;-81
2023/05/08 08:11:13;;;;;;;11.87;11.00;;;;;;;11.74;78.14;101465.59;5036569;28;20214;-81
2023/05/08 08:13:39;;;;;;;11.50;10.40;;;;;;;11.84;76.88;101471.63;5037186;28;20263;-81
2023/05/08 08:16:06;;;;;;;11.20;10.50;;;;;;;11.91;76.18;101494.25;5036141;28;20210;-82
2023/05/08 08:18:34;;;;;;;11.37;10.63;;;;;;;12.00;76.52;101496.81;5037272;28;20212;-80
2023/05/08 08:21:01;;;;;;;10.93;10.23;;;;;;;12.05;76.11;101504.63;5037231;28;20233;-81
2023/05/08 08:23:38;;;;;;;11.97;11.17;;;;;;;12.08;75.68;101518.56;5036724;28;20210;-82
2023/05/08 08:26:04;;;;;;;10.90;10.13;;;;;;;12.09;75.17;101548.22;5036918;28;20209;-79
2023/05/08 08:28:31;;;;;;;11.23;10.43;;;;;;;12.18;75.44;101545.53;5036376;28;20212;-82
2023/05/08 08:30:57;;;;;;;11.50;10.70;;;;;;;12.24;76.03;101537.63;5036285;28;20249;-82
2023/05/08 08:33:24;;;;;;;11.27;10.50;;;;;;;12.31;75.17;101544.56;5035926;28;20243;-84
2023/05/08 08:35:50;;;;;;;11.87;11.07;;;;;;;12.36;75.04;101555.00;5037010;28;20244;-80
2023/05/08 08:38:16;;;;;;;12.50;11.57;;;;;;;12.42;75.30;101549.69;5038105;28;20213;-79
2023/05/08 08:40:44;;;;;;;11.60;10.90;;;;;;;12.49;75.50;101550.53;5037838;28;20209;-81
2023/05/08 08:43:10;;;;;;;10.97;10.23;;;;;;;12.57;75.51;101543.47;5036048;28;20237;-80
2023/05/08 08:45:37;;;;;;;11.33;10.57;;;;;;;12.63;75.35;101539.94;5036215;28;20210;-80
2023/05/08 08:48:04;;;;;;;12.03;11.20;;;;;;;12.70;75.45;101539.84;5041254;28;20623;-83
2023/05/08 08:50:31;;;;;;;11.93;11.13;;;;;;;12.74;74.48;101542.41;5038724;28;20256;-82
2023/05/08 08:53:05;;;;;;;11.20;10.40;;;;;;;12.82;74.71;101545.81;5035427;28;20617;-82
2023/05/08 08:55:38;;;;;;;10.70;9.90;;;;;;;12.87;75.84;101544.03;5036945;28;20880;-85
2023/05/08 08:58:15;;;;;;;11.60;10.60;;;;;;;12.95;74.98;101526.47;5036000;28;20783;-83
2023/05/08 09:00:43;;;;;;;11.20;10.20;;;;;;;13.03;76.22;101508.03;5037271;28;20210;-81
2023/05/08 09:03:10;;;;;;;11.40;10.60;;;;;;;13.08;75.28;101514.97;5036894;28;20210;-83
2023/05/08 09:05:37;;;;;;;12.20;11.30;;;;;;;13.17;74.81;101531.47;5037776;28;20272;-81
2023/05/08 09:08:04;;;;;;;11.60;10.63;;;;;;;13.22;75.13;101530.53;5037607;28;20210;-81
2023/05/08 09:10:30;;;;;;;10.93;10.13;;;;;;;13.31;74.97;101527.81;5035237;28;20249;-82
2023/05/08 09:12:56;;;;;;;10.10;9.50;;;;;;;13.40;74.19;101541.69;5037039;28;20256;-80
2023/05/08 09:15:24;;;;;;;10.83;10.13;;;;;;;13.49;75.20;101521.44;5038573;28;20229;-81
2023/05/08 09:17:50;;;;;;;11.00;10.30;;;;;;;13.56;74.67;101522.25;5038241;28;20236;-81
2023/05/08 09:20:17;;;;;;;10.13;9.43;;;;;;;13.60;73.60;101544.94;5038409;28;20256;-84
2023/05/08 09:22:43;;;;;;;9.90;9.20;;;;;;;13.68;73.64;101535.19;5038397;28;20289;-84
2023/05/08 09:25:10;;;;;;;9.97;9.30;;;;;;;13.77;74.57;101513.19;5038744;28;20226;-84
2023/05/08 09:27:37;;;;;;;9.43;8.63;;;;;;;13.87;72.51;101558.53;5039137;28;20210;-84
2023/05/08 09:30:05;;;;;;;9.70;9.00;;;;;;;13.98;74.80;101545.28;5037997;28;20317;-83
2023/05/08 09:32:34;;;;;;;9.57;8.67;;;;;;;14.06;72.22;101552.13;5038302;28;20202;-83
2023/05/08 09:35:01;;;;;;;9.50;8.80;;;;;;;14.13;70.68;101605.41;5039400;28;20256;-84
2023/05/08 09:37:28;;;;;;;9.53;8.83;;;;;;;14.21;70.35;101639.44;5041898;28;20670;-84
2023/05/08 09:40:13;;;;;;;8.93;8.13;;;;;;;14.29;70.25;101653.31;5042363;28;20216;-84
2023/05/08 09:42:39;;;;;;;9.57;8.97;;;;;;;14.34;69.89;101680.38;5042488;28;20210;-83
2023/05/08 09:45:07;;;;;;;9.17;8.57;;;;;;;14.41;70.10;101684.69;5042422;28;20227;-83
2023/05/08 09:47:38;;;;;;;10.23;9.47;;;;;;;14.53;72.75;101659.09;5042213;28;20209;-83
2023/05/08 09:50:15;;;;;;;9.80;9.00;;;;;;;14.58;68.57;101668.66;5047071;28;20261;-84
2023/05/08 09:52:46;;;;;;;9.63;8.93;;;;;;;14.64;71.37;101694.84;5047863;28;20724;-82
2023/05/08 09:55:13;;;;;;;8.57;8.07;;;;;;;14.73;69.70;101672.81;5046356;28;20705;-83
2023/05/08 09:57:51;;;;;;;8.93;8.37;;;;;;;14.83;67.45;101707.72;5046576;28;20230;-82
2023/05/08 10:00:17;;;;;;;8.93;8.23;;;;;;;14.86;66.76;101750.56;5046592;28;20677;-83
2023/05/08 10:02:55;;;;;;;9.27;8.63;;;;;;;14.94;66.79;101778.53;5043016;28;20233;-81
2023/05/08 10:05:28;;;;;;;8.57;7.87;;;;;;;15.02;67.59;101763.47;5040363;28;20238;-81
2023/05/08 10:07:55;;;;;;;8.13;7.63;;;;;;;15.14;67.98;101765.03;5039701;28;20210;-82
2023/05/08 10:10:26;;;;;;;7.87;7.37;;;;;;;15.23;65.13;101772.78;5040070;28;20246;-85
2023/05/08 10:12:57;;;;;;;7.87;7.27;;;;;;;15.30;68.85;101782.31;5038965;28;20207;-85
2023/05/08 10:15:25;;;;;;;6.97;6.57;;;;;;;15.42;66.61;101753.16;5040745;28;20230;-83
2023/05/08 10:18:02;;;;;;;7.80;7.23;;;;;;;15.56;64.55;101789.75;5041400;28;20272;-84
2023/05/08 10:20:30;;;;;;;7.30;6.70;;;;;;;15.65;65.11;101826.44;5041423;28;20215;-85
2023/05/08 10:22:58;;;;;;;7.57;7.03;;;;;;;15.76;65.08;101807.84;5041140;28;20211;-84
2023/05/08 10:25:25;;;;;;;7.77;7.33;;;;;;;15.82;64.89;101820.91;5039406;28;20365;-84
2023/05/08 10:27:56;;;;;;;8.67;8.17;;;;;;;15.89;64.39;101819.88;5042457;28;20207;-82
2023/05/08 10:30:25;;;;;;;8.30;7.80;;;;;;;15.94;64.81;101851.41;5041956;28;20229;-83
2023/05/08 10:32:54;;;;;;;8.90;8.30;;;;;;;15.99;62.34;101857.44;5039913;28;20208;-82
2023/05/08 10:35:21;;;;;;;8.10;7.60;;;;;;;16.05;62.28;101883.69;5038961;28;20568;-82
2023/05/08 10:37:49;;;;;;;7.27;6.87;;;;;;;16.08;62.86;101895.94;5038826;28;20217;-81
2023/05/08 10:40:15;;;;;;;8.30;7.80;;;;;;;16.15;62.63;101889.63;5031200;28;20306;-82
2023/05/08 10:42:42;;;;;;;8.37;7.83;;;;;;;16.23;66.04;101864.03;5039402;28;20211;-82
2023/05/08 10:45:10;;;;;;;8.77;8.07;;;;;;;16.37;66.87;101783.81;5037993;28;20232;-83
2023/05/08 10:47:45;;;;;;;8.50;7.90;;;;;;;16.56;66.48;101755.28;5037717;28;20212;-83
2023/05/08 10:50:26;;;;;;;8.70;8.00;;;;;;;16.64;62.73;101799.00;5039034;28;20232;-85
2023/05/08 10:52:59;;;;;;;9.10;8.50;;;;;;;16.70;61.24;101857.81;5039555;28;20586;-83
2023/05/08 10:55:30;;;;;;;8.90;8.30;;;;;;;16.70;59.59;101906.13;5039581;28;20224;-83
2023/05/08 10:58:09;;;;;;;7.70;7.20;;;;;;;16.71;60.44;101951.81;5039162;28;20218;-84
2023/05/08 11:01:11;;;;;;;6.50;6.10;;;;;;;16.83;59.13;101963.03;5038125;28;20254;-83
2023/05/08 11:06:04;;;;;;;8.40;7.83;;;;;;;17.01;59.33;101964.41;5046098;23;20637;-71
2023/05/08 11:08:31;;;;;;;7.50;7.00;;;;;;;17.12;59.85;101968.59;5012900;28;20230;-72
2023/05/08 11:11:05;;;;;;;9.23;8.63;;;;;;;17.25;59.22;101970.06;5013338;28;20294;-71
2023/05/08 11:13:35;;;;;;;9.70;9.10;;;;;;;17.31;58.21;101990.16;5013684;28;20693;-71
2023/05/08 11:16:02;;;;;;;9.37;8.67;;;;;;;17.45;63.81;101943.22;5013940;28;20236;-70
2023/05/08 11:18:29;;;;;;;8.20;7.60;;;;;;;17.73;62.94;101824.56;5013653;28;20233;-71
2023/05/08 11:20:57;;;;;;;9.07;8.47;;;;;;;17.85;57.21;101934.34;5013662;28;20220;-70
2023/05/08 11:23:26;;;;;;;8.93;8.33;;;;;;;18.01;55.64;101987.66;5013648;28;20210;-71
2023/05/08 11:26:01;;;;;;;9.90;9.20;;;;;;;18.14;56.26;102022.59;5013588;28;20237;-70
2023/05/08 11:28:28;;;;;;;10.83;10.13;;;;;;;18.31;54.73;102038.88;5013579;28;20396;-70
2023/05/08 11:30:55;;;;;;;10.70;10.00;;;;;;;19.03;53.96;102067.84;5013387;28;20226;-71
2023/05/08 11:33:22;;;;;;;10.20;9.43;;;;;;;20.57;51.38;102085.16;5013232;28;20249;-71
2023/05/08 11:35:52;;;;;;;10.07;9.37;;;;;;;22.21;47.73;102179.16;5013376;28;20212;-71